Collamer, Indiana
Current Conditions -  °F | °C
As of 9:55 PM on Wednesday 26 Nov 2014 (Local Time) from KHHG Reporting Station
Overcast Overcast  
Wind Chill: 28°   Ceiling: 2600
Heat Index: 28°   Visibility: 10mi
Dew Point: 23°   Wind: 3mph
Humidity: 82%   Direction: 330°NNW
Pressure: 30.1"   Gusts: NA
Location:  41.056°N, 85.6112°W
Report Text: KHHG 270255Z AUTO 33003KT 10SM OVC026 M02/M05 A3010 RMK AO2 T10251052
Loading
Personal Weather Stations






























Interactive Weather Map New forecast layout! Learn more

10-Day Weather Forecast

Advertisements
Track Severe Weather on mobile